Time;durP1;ratioP1;P1;durP2;ratioP2;P2;SDS_P1;SDS_P2;PMS_P1;PMS_P2;Temp;Humidity;BMP_temperature;BMP_pressure;BME280_temperature;BME280_humidity;BME280_pressure;Samples;Min_cycle;Max_cycle;Signal;HPM_P1;HPM_P2
2022/12/17 13:06:04;;;;;;;;;56.25;39.00;;;;;4.25;58.19;101950.28;5060154;28;45369;-45
2022/12/17 13:08:29;;;;;;;;;46.25;36.50;;;;;4.41;58.33;101955.97;5059049;28;45240;-48
2022/12/17 13:10:55;;;;;;;;;47.00;38.00;;;;;4.54;58.34;101943.38;5060006;28;45333;-45
2022/12/17 13:13:33;;;;;;;;;71.50;56.00;;;;;4.77;58.14;101945.78;5059917;28;46124;-47
2022/12/17 13:16:19;;;;;;;;;61.75;49.00;;;;;4.99;58.49;101946.38;5059732;28;45357;-45
2022/12/17 13:18:45;;;;;;;;;47.25;36.25;;;;;5.18;58.33;101939.94;5060049;28;45455;-44
2022/12/17 13:21:13;;;;;;;;;53.25;42.00;;;;;5.43;58.31;101940.63;5060050;28;45490;-45
2022/12/17 13:23:39;;;;;;;;;43.25;36.25;;;;;5.68;58.03;101944.75;5059784;28;46234;-44
2022/12/17 13:26:21;;;;;;;;;39.75;35.00;;;;;5.93;58.10;101930.56;5049249;28;45349;-44
2022/12/17 13:29:02;;;;;;;;;46.75;36.75;;;;;6.15;58.13;101942.44;5059890;27;45327;-46
2022/12/17 13:31:40;;;;;;;;;44.75;35.75;;;;;6.34;58.04;101938.50;5059532;27;45464;-45
2022/12/17 13:34:36;;;;;;;;;53.50;40.00;;;;;6.55;57.70;101939.81;5059519;28;46202;-45
2022/12/17 13:37:32;;;;;;;;;47.00;37.75;;;;;6.75;57.56;101935.00;5059720;28;45402;-47
2022/12/17 13:40:03;;;;;;;;;51.50;40.00;;;;;6.93;57.58;101933.63;5059625;27;45282;-51
2022/12/17 13:42:33;;;;;;;;;41.75;35.25;;;;;7.13;57.66;101931.41;5059691;28;45355;-46
2022/12/17 13:44:59;;;;;;;;;53.50;43.25;;;;;7.32;57.52;101927.44;5059350;28;46366;-49
2022/12/17 13:47:29;;;;;;;;;46.75;38.50;;;;;7.53;57.78;101936.50;5059492;28;45343;-45
2022/12/17 13:49:57;;;;;;;;;48.00;37.25;;;;;7.77;57.65;101943.88;5059614;28;45379;-46
2022/12/17 13:52:24;;;;;;;;;44.75;36.75;;;;;7.95;57.45;101938.09;5059469;28;45383;-46
2022/12/17 13:54:50;;;;;;;;;44.25;35.50;;;;;8.18;57.44;101942.78;5059323;28;46505;-45
2022/12/17 13:57:22;;;;;;;;;56.50;44.00;;;;;8.41;57.41;101937.88;5059498;28;45302;-47
2022/12/17 14:00:00;;;;;;;;;40.00;31.50;;;;;8.63;57.25;101936.47;5059490;28;45247;-43
2022/12/17 14:02:30;;;;;;;;;43.50;36.50;;;;;8.85;57.20;101929.72;5059221;28;45386;-47
2022/12/17 14:05:01;;;;;;;;;51.25;40.25;;;;;9.09;57.03;101931.78;5075052;28;47513;-46
2022/12/17 14:07:27;;;;;;;;;46.50;38.75;;;;;9.31;57.04;101926.75;5059369;28;45390;-47
2022/12/17 14:09:53;;;;;;;;;45.00;36.50;;;;;9.53;57.01;101940.94;5059712;28;45545;-47
2022/12/17 14:12:24;;;;;;;;;43.00;35.25;;;;;9.74;56.75;101932.38;5062567;28;45272;-43
2022/12/17 14:14:59;;;;;;;;;38.50;33.25;;;;;9.94;56.52;101934.28;5062733;28;46158;-44
2022/12/17 14:17:35;;;;;;;;;49.25;41.00;;;;;10.14;56.67;101933.53;5062434;28;45273;-46
2022/12/17 14:20:03;;;;;;;;;43.75;33.75;;;;;10.31;56.34;101931.88;5062894;28;45186;-44
2022/12/17 14:22:36;;;;;;;;;43.75;37.00;;;;;10.49;56.23;101940.78;5062563;27;45559;-44
2022/12/17 14:25:04;;;;;;;;;66.00;53.25;;;;;10.63;56.15;101939.13;5062723;28;45541;-44
2022/12/17 14:27:35;;;;;;;;;37.50;33.00;;;;;10.78;55.94;101948.81;5062292;28;45366;-44
2022/12/17 14:30:18;;;;;;;;;34.00;29.50;;;;;10.88;55.62;101945.34;5062619;28;45244;-44
2022/12/17 14:32:44;;;;;;;;;38.00;32.00;;;;;10.97;55.50;101939.25;5062443;27;45453;-43
2022/12/17 14:35:28;;;;;;;;;40.50;33.00;;;;;11.08;55.20;101955.06;5062423;28;45248;-44
2022/12/17 14:37:54;;;;;;;;;38.50;31.50;;;;;11.12;55.08;101956.84;5078332;28;45324;-44
2022/12/17 14:40:21;;;;;;;;;49.75;40.75;;;;;11.13;54.85;101953.34;5062415;28;45276;-43
2022/12/17 14:42:47;;;;;;;;;41.25;32.50;;;;;11.17;54.69;101956.81;5062225;28;45559;-44
2022/12/17 14:45:15;;;;;;;;;37.25;32.75;;;;;11.19;54.64;101955.09;5061861;28;46191;-44
2022/12/17 14:47:56;;;;;;;;;38.75;32.00;;;;;11.19;54.47;101955.97;5078024;28;45319;-46
2022/12/17 14:50:21;;;;;;;;;42.50;36.25;;;;;11.18;54.58;101948.97;5062601;28;45221;-46
2022/12/17 14:52:49;;;;;;;;;41.00;35.50;;;;;11.15;54.21;101956.81;5061811;28;45571;-44
2022/12/17 14:55:50;;;;;;;;;38.25;33.75;;;;;11.11;54.08;101954.22;5062178;28;46314;-43
2022/12/17 14:58:21;;;;;;;;;48.00;36.25;;;;;11.01;53.99;101950.66;5062124;28;45302;-45
2022/12/17 15:00:58;;;;;;;;;45.50;37.00;;;;;10.90;53.87;101947.97;5062127;28;45408;-45
2022/12/17 15:03:27;;;;;;;;;40.75;33.00;;;;;10.73;53.78;101938.28;5077791;28;45337;-44
2022/12/17 15:06:04;;;;;;;;;45.25;37.50;;;;;10.62;53.60;101939.13;5062315;27;45538;-45
2022/12/17 15:08:38;;;;;;;;;45.25;37.00;;;;;10.51;53.54;101939.91;5077600;28;45281;-45
2022/12/17 15:11:03;;;;;;;;;45.75;38.00;;;;;10.38;53.61;101938.13;5077366;27;45312;-47
2022/12/17 15:13:29;;;;;;;;;45.50;36.25;;;;;10.24;53.57;101936.25;5061849;28;45240;-45
2022/12/17 15:15:54;;;;;;;;;53.00;42.75;;;;;10.13;53.41;101942.31;5077302;28;45564;-47
2022/12/17 15:18:19;;;;;;;;;51.75;42.50;;;;;9.99;53.23;101943.06;5061889;28;45286;-46
2022/12/17 15:20:45;;;;;;;;;48.50;39.25;;;;;9.88;53.24;101952.63;5061860;28;45372;-46
2022/12/17 15:23:19;;;;;;;;;44.50;36.00;;;;;9.71;53.00;101953.34;5060648;28;46208;-47
2022/12/17 15:25:46;;;;;;;;;49.50;40.25;;;;;9.57;52.84;101947.09;5061355;28;45431;-48
2022/12/17 15:28:12;;;;;;;;;49.00;38.00;;;;;9.41;53.11;101941.72;5061593;28;45377;-45
2022/12/17 15:30:38;;;;;;;;;47.25;37.00;;;;;9.22;52.89;101935.41;5061446;28;45394;-45
2022/12/17 15:33:05;;;;;;;;;52.50;41.00;;;;;9.03;53.11;101934.31;5061711;28;45389;-45
2022/12/17 15:35:31;;;;;;;;;43.50;36.50;;;;;8.79;52.83;101945.38;5076983;28;46154;-45
2022/12/17 15:37:56;;;;;;;;;39.75;33.00;;;;;8.55;52.97;101944.22;5061538;28;45236;-46
2022/12/17 15:40:21;;;;;;;;;40.75;34.50;;;;;8.31;52.81;101944.72;5061581;28;45325;-44
2022/12/17 15:45:30;;;;;;;;;35.75;31.25;;;;;7.77;52.85;101951.72;5061088;28;45293;-49
2022/12/17 15:47:56;;;;;;;;;38.25;34.25;;;;;7.51;52.65;101957.41;5061380;28;45284;-47
2022/12/17 15:50:22;;;;;;;;;34.00;27.50;;;;;7.27;52.65;101961.31;5061403;28;45410;-46
2022/12/17 15:52:47;;;;;;;;;41.25;31.75;;;;;7.03;52.69;101959.13;5059718;27;45352;-45
2022/12/17 15:55:13;;;;;;;;;38.75;34.00;;;;;6.79;52.71;101962.09;5076738;28;47344;-44
2022/12/17 15:57:39;;;;;;;;;43.75;37.50;;;;;6.57;52.61;101966.88;5061072;28;45311;-47
2022/12/17 16:00:04;;;;;;;;;42.75;33.00;;;;;6.38;52.51;101982.97;5061412;28;45291;-46
2022/12/17 16:02:30;;;;;;;;;43.75;36.50;;;;;6.17;52.48;101989.44;5060890;28;45477;-45
2022/12/17 16:04:55;;;;;;;;;46.00;36.75;;;;;5.98;52.65;101988.09;5060744;28;45323;-46
2022/12/17 16:07:20;;;;;;;;;59.25;46.25;;;;;5.81;52.54;101991.16;5060975;27;45387;-46
2022/12/17 16:09:46;;;;;;;;;62.50;47.25;;;;;5.64;52.48;101995.94;5060982;28;45498;-46
2022/12/17 16:12:11;;;;;;;;;62.50;45.75;;;;;5.46;52.53;101993.72;5060784;28;45444;-45
2022/12/17 16:14:36;;;;;;;;;63.25;45.75;;;;;5.26;52.66;101992.28;5060651;28;45303;-46
2022/12/17 16:17:02;;;;;;;;;67.25;51.75;;;;;5.12;52.55;102000.63;5076304;28;45265;-45
2022/12/17 16:19:27;;;;;;;;;67.50;51.75;;;;;4.96;52.65;101983.66;5060906;28;45472;-45
2022/12/17 16:21:52;;;;;;;;;53.75;43.25;;;;;4.81;52.64;101991.03;5060840;28;45312;-47
2022/12/17 16:24:18;;;;;;;;;50.75;43.25;;;;;4.65;52.61;101982.75;5060594;28;46306;-45
2022/12/17 16:26:43;;;;;;;;;46.50;39.75;;;;;4.48;52.70;101987.44;5060723;28;45241;-45
2022/12/17 16:29:09;;;;;;;;;53.00;41.50;;;;;4.35;52.68;101998.31;5060744;28;45137;-47
2022/12/17 16:31:34;;;;;;;;;45.50;40.00;;;;;4.19;52.65;101994.34;5060472;28;45244;-47
2022/12/17 16:33:59;;;;;;;;;53.25;42.25;;;;;4.04;52.58;101993.00;5060060;28;46160;-44
2022/12/17 16:36:25;;;;;;;;;55.25;44.75;;;;;3.92;52.29;101991.72;5076276;28;45198;-45
2022/12/17 16:38:52;;;;;;;;;56.00;43.75;;;;;3.79;52.82;101993.91;5060457;28;45234;-48
2022/12/17 16:41:19;;;;;;;;;55.75;43.25;;;;;3.66;52.56;101986.50;5060392;28;45355;-44
2022/12/17 16:43:45;;;;;;;;;60.00;45.25;;;;;3.52;52.78;101979.16;5060107;28;45406;-45
2022/12/17 16:46:27;;;;;;;;;61.50;46.75;;;;;3.42;52.60;101982.22;5060088;28;45333;-46
2022/12/17 16:48:53;;;;;;;;;57.75;46.25;;;;;3.32;53.05;101990.53;5060573;28;45292;-44
2022/12/17 16:51:20;;;;;;;;;53.25;45.00;;;;;3.21;52.98;101995.38;5060145;28;45312;-45
2022/12/17 16:53:46;;;;;;;;;59.50;48.75;;;;;3.13;52.86;101989.88;5060157;28;45436;-46
2022/12/17 16:56:21;;;;;;;;;69.00;52.75;;;;;3.02;52.55;101981.69;5059974;28;45383;-45
2022/12/17 16:58:47;;;;;;;;;79.25;56.25;;;;;2.94;52.70;101985.72;5060384;28;45318;-44
2022/12/17 17:01:17;;;;;;;;;70.50;55.00;;;;;2.84;52.77;101976.69;5059790;28;45278;-45
2022/12/17 17:03:42;;;;;;;;;58.75;46.50;;;;;2.76;52.68;101965.16;5060157;28;46449;-47
2022/12/17 17:06:08;;;;;;;;;70.00;52.25;;;;;2.68;52.72;101976.94;5059979;28;45382;-43
2022/12/17 17:08:38;;;;;;;;;70.25;51.50;;;;;2.60;53.06;101982.75;5060375;28;45244;-48
2022/12/17 17:11:08;;;;;;;;;64.75;48.00;;;;;2.53;53.17;101979.84;5059689;28;45449;-47
2022/12/17 17:13:33;;;;;;;;;60.75;48.25;;;;;2.44;52.75;101983.00;5060034;28;45405;-45
2022/12/17 17:15:59;;;;;;;;;68.50;51.25;;;;;2.38;53.05;101993.13;5059543;28;45260;-46
2022/12/17 17:18:24;;;;;;;;;62.00;49.25;;;;;2.32;52.65;101998.94;5060149;28;45302;-44
2022/12/17 17:20:49;;;;;;;;;57.75;45.00;;;;;2.25;53.06;101995.22;5059760;28;45525;-47
2022/12/17 17:23:16;;;;;;;;;63.75;50.00;;;;;2.17;52.81;101978.47;5059794;28;45439;-45
2022/12/17 17:25:41;;;;;;;;;69.25;53.25;;;;;2.10;52.79;101982.53;5059586;28;45333;-48
2022/12/17 17:28:06;;;;;;;;;64.25;50.00;;;;;2.07;52.86;101994.47;5059945;28;45508;-47
2022/12/17 17:30:31;;;;;;;;;70.25;51.75;;;;;2.00;53.33;101992.44;5059404;28;45370;-49
2022/12/17 17:32:57;;;;;;;;;69.25;50.75;;;;;1.95;53.20;101990.56;5059570;28;45230;-43
2022/12/17 17:35:22;;;;;;;;;70.75;54.25;;;;;1.92;52.95;101986.94;5059588;28;45224;-46
2022/12/17 17:37:47;;;;;;;;;66.00;51.25;;;;;1.88;52.96;101982.47;5059935;28;45220;-46
2022/12/17 17:40:13;;;;;;;;;63.25;48.25;;;;;1.81;53.22;101993.41;5059555;28;45169;-46
2022/12/17 17:42:38;;;;;;;;;64.50;50.25;;;;;1.78;53.30;102004.53;5059456;28;46178;-45
2022/12/17 17:45:05;;;;;;;;;67.00;52.75;;;;;1.70;53.07;101998.13;5059644;28;45177;-43
2022/12/17 17:47:30;;;;;;;;;67.75;51.25;;;;;1.70;53.25;102014.56;5063265;28;45299;-45
2022/12/17 17:49:56;;;;;;;;;72.00;54.50;;;;;1.66;53.19;102007.50;5063125;28;45229;-46
2022/12/17 17:52:21;;;;;;;;;74.33;57.67;;;;;1.64;53.14;102010.84;5063057;28;45224;-48
2022/12/17 17:54:46;;;;;;;;;77.67;58.33;;;;;1.55;53.15;102014.78;5062966;28;45326;-45
2022/12/17 17:57:12;;;;;;;;;80.00;58.00;;;;;1.56;53.43;102011.38;5063418;28;45245;-48
2022/12/17 17:59:38;;;;;;;;;74.67;57.67;;;;;1.51;53.36;102005.13;5062849;28;45331;-46
2022/12/17 18:02:03;;;;;;;;;74.33;58.67;;;;;1.44;53.61;101990.13;5062760;28;46835;-48
2022/12/17 18:04:29;;;;;;;;;74.00;60.00;;;;;1.44;53.44;101997.91;5062822;28;45355;-48
2022/12/17 18:06:54;;;;;;;;;72.00;57.00;;;;;1.41;53.47;102000.34;5063409;28;45337;-46
2022/12/17 18:09:20;;;;;;;;;72.33;56.67;;;;;1.37;53.59;101998.44;5062779;28;45498;-45
2022/12/17 18:11:45;;;;;;;;;71.67;58.00;;;;;1.34;53.27;101991.44;5078399;28;46124;-46
2022/12/17 18:14:12;;;;;;;;;80.67;59.67;;;;;1.31;53.39;101991.31;5062727;28;45264;-44
2022/12/17 18:16:44;;;;;;;;;102.33;80.00;;;;;1.27;53.44;101987.69;5062853;28;45302;-44
2022/12/17 18:19:13;;;;;;;;;94.33;70.33;;;;;1.23;53.56;101972.84;5078280;27;45510;-43
2022/12/17 18:21:39;;;;;;;;;72.67;59.00;;;;;1.21;53.59;101978.75;5062583;28;45335;-44
2022/12/17 18:24:21;;;;;;;;;74.67;61.00;;;;;1.16;53.55;101978.56;5062590;28;45273;-44
2022/12/17 18:26:46;;;;;;;;;83.33;63.67;;;;;1.09;53.44;101974.78;5065021;28;45361;-44
2022/12/17 18:29:15;;;;;;;;;81.67;61.67;;;;;1.10;53.71;101983.47;5062135;28;45342;-47
2022/12/17 18:31:40;;;;;;;;;80.00;62.67;;;;;1.05;53.73;101990.16;5077898;28;46050;-48
2022/12/17 18:34:07;;;;;;;;;84.67;64.33;;;;;1.00;53.88;101994.25;5062424;28;45220;-45
2022/12/17 18:36:38;;;;;;;;;73.00;57.00;;;;;0.96;53.97;101993.22;5078369;28;45461;-47
2022/12/17 18:39:09;;;;;;;;;73.00;58.67;;;;;0.92;53.86;101986.13;5078037;28;45502;-46
2022/12/17 18:44:19;;;;;;;;;87.33;66.67;;;;;0.83;53.90;101989.19;5062303;28;45319;-45
2022/12/17 18:46:45;;;;;;;;;82.67;64.00;;;;;0.79;54.06;102001.09;5077746;28;45276;-44
2022/12/17 18:49:13;;;;;;;;;78.00;63.33;;;;;0.75;53.93;101998.28;5062253;28;45340;-44
2022/12/17 18:51:41;;;;;;;;;78.67;61.00;;;;;0.72;54.14;102004.22;5061884;28;45457;-44
2022/12/17 18:54:10;;;;;;;;;82.33;62.67;;;;;0.69;54.31;101998.00;5062218;28;45232;-44
2022/12/17 18:56:36;;;;;;;;;77.67;62.00;;;;;0.65;54.38;101999.56;5062166;28;45317;-44
2022/12/17 18:59:02;;;;;;;;;77.67;60.33;;;;;0.64;54.16;102021.06;5062193;28;45505;-46
2022/12/17 19:01:32;;;;;;;;;78.00;56.75;;;;;0.60;54.17;102016.56;5061667;28;46382;-48
2022/12/17 19:04:04;;;;;;;;;72.50;58.75;;;;;0.55;54.16;102023.22;5062105;28;45403;-44
2022/12/17 19:06:31;;;;;;;;;76.00;56.50;;;;;0.54;54.25;102026.63;5062150;28;45242;-46
2022/12/17 19:08:56;;;;;;;;;62.00;49.25;;;;;0.51;53.81;102024.78;5062057;28;45440;-46
2022/12/17 19:11:22;;;;;;;;;71.00;52.00;;;;;0.49;54.34;102026.41;5061836;28;45562;-47
2022/12/17 19:13:48;;;;;;;;;62.75;46.00;;;;;0.46;54.20;102026.25;5061877;28;45339;-45
2022/12/17 19:16:17;;;;;;;;;66.75;50.00;;;;;0.41;54.51;102020.84;5061777;28;45314;-45
2022/12/17 19:18:42;;;;;;;;;59.50;49.50;;;;;0.40;54.59;102028.56;5061860;28;45525;-45
2022/12/17 19:21:14;;;;;;;;;65.75;54.25;;;;;0.37;54.26;102025.84;5062358;27;45943;-46
2022/12/17 19:23:40;;;;;;;;;64.75;52.25;;;;;0.34;54.48;102031.75;5061751;28;45280;-45
2022/12/17 19:26:08;;;;;;;;;63.00;50.00;;;;;0.29;54.48;102030.59;5061723;28;45470;-44
2022/12/17 19:28:34;;;;;;;;;60.50;40.00;;;;;0.27;54.46;102035.72;5061707;28;45469;-47
2022/12/17 19:31:00;;;;;;;;;73.67;56.67;;;;;0.24;54.36;102038.16;5061759;28;45204;-45
2022/12/17 19:33:26;;;;;;;;;70.75;54.75;;;;;0.22;54.46;102044.06;5061420;27;45319;-46
2022/12/17 19:36:05;;;;;;;;;72.33;53.67;;;;;0.20;54.61;102037.94;5061916;28;45348;-49
2022/12/17 19:38:31;;;;;;;;;67.00;48.50;;;;;0.16;54.47;102031.72;5061488;28;45355;-49
2022/12/17 19:41:05;;;;;;;;;67.50;51.50;;;;;0.11;54.75;102021.16;5061409;28;45480;-47
2022/12/17 19:43:31;;;;;;;;;67.25;54.75;;;;;0.10;54.50;102026.25;5061287;28;45470;-45
2022/12/17 19:46:05;;;;;;;;;63.00;50.50;;;;;0.06;54.58;102017.44;5077160;28;45473;-45
2022/12/17 19:48:33;;;;;;;;;56.00;47.00;;;;;0.02;54.79;102020.69;5061380;28;45351;-48
2022/12/17 19:50:59;;;;;;;;;65.25;49.50;;;;;-0.03;54.81;102025.63;5061240;28;46185;-46
2022/12/17 19:53:26;;;;;;;;;61.00;51.00;;;;;-0.07;54.99;102021.13;5076639;28;45320;-45
2022/12/17 19:55:56;;;;;;;;;57.50;48.50;;;;;-0.08;54.72;102032.28;5061400;28;45227;-47
2022/12/17 19:58:23;;;;;;;;;67.25;53.50;;;;;-0.11;54.68;102034.72;5061295;28;45560;-45
2022/12/17 20:00:49;;;;;;;;;53.00;45.25;;;;;-0.13;54.57;102033.75;5060872;28;45251;-44
2022/12/17 20:03:15;;;;;;;;;69.00;50.00;;;;;-0.18;54.54;102027.47;5061054;28;45275;-48
2022/12/17 20:05:45;;;;;;;;;68.75;52.25;;;;;-0.21;54.52;102027.31;5061292;28;45466;-46
2022/12/17 20:08:11;;;;;;;;;67.50;49.50;;;;;-0.24;55.06;102032.31;5060493;28;45328;-44
2022/12/17 20:10:37;;;;;;;;;63.75;50.25;;;;;-0.28;54.47;102031.25;5060880;28;46099;-46
2022/12/17 20:13:03;;;;;;;;;56.75;50.25;;;;;-0.30;54.95;102044.91;5060894;28;45459;-46
2022/12/17 20:15:28;;;;;;;;;67.25;50.00;;;;;-0.32;54.65;102043.97;5060647;28;45409;-47
2022/12/17 20:17:54;;;;;;;;;73.50;52.50;;;;;-0.39;54.95;102043.66;5061093;28;45185;-44
2022/12/17 20:20:19;;;;;;;;;71.75;54.00;;;;;-0.40;54.81;102047.03;5060691;28;46224;-44
2022/12/17 20:22:44;;;;;;;;;81.50;54.75;;;;;-0.42;54.70;102048.63;5060946;28;45216;-44
2022/12/17 20:25:10;;;;;;;;;73.67;56.00;;;;;-0.45;54.92;102048.50;5060762;28;45493;-45
2022/12/17 20:27:37;;;;;;;;;91.00;69.67;;;;;-0.51;55.32;102045.59;5076329;28;45604;-47
2022/12/17 20:30:04;;;;;;;;;71.25;54.50;;;;;-0.52;54.90;102065.34;5060296;28;46114;-45
2022/12/17 20:32:32;;;;;;;;;68.75;53.75;;;;;-0.52;55.16;102069.63;5060384;28;46187;-46
2022/12/17 20:34:57;;;;;;;;;70.00;54.75;;;;;-0.52;54.75;102077.38;5060728;28;45425;-46
2022/12/17 20:37:22;;;;;;;;;71.50;56.50;;;;;-0.54;54.87;102076.41;5060919;28;45222;-48
2022/12/17 20:39:48;;;;;;;;;65.00;48.00;;;;;-0.55;54.93;102082.41;5060478;28;46143;-45
2022/12/17 20:42:13;;;;;;;;;71.25;50.00;;;;;-0.57;55.18;102071.97;5060614;28;45263;-45
2022/12/17 20:44:39;;;;;;;;;66.00;54.75;;;;;-0.59;55.05;102072.69;5060941;27;45415;-46
2022/12/17 20:47:04;;;;;;;;;73.67;54.00;;;;;-0.63;54.92;102073.34;5060363;28;45205;-46
2022/12/17 20:49:30;;;;;;;;;63.50;51.75;;;;;-0.62;55.01;102075.13;5060495;28;45187;-46
2022/12/17 20:51:55;;;;;;;;;68.50;53.50;;;;;-0.66;55.41;102069.78;5059877;28;45228;-46
2022/12/17 20:54:21;;;;;;;;;62.00;49.00;;;;;-0.67;55.31;102082.63;5059075;28;45575;-44
2022/12/17 20:56:46;;;;;;;;;60.50;48.25;;;;;-0.70;55.52;102075.59;5075797;27;45161;-44
2022/12/17 20:59:17;;;;;;;;;46.50;43.50;;;;;-0.71;55.51;102075.53;5060216;28;46257;-46
2022/12/17 21:01:43;;;;;;;;;62.00;46.75;;;;;-0.74;55.42;102084.00;5059898;28;45298;-47
2022/12/17 21:04:11;;;;;;;;;66.00;53.00;;;;;-0.78;55.20;102084.66;5060184;28;45215;-45
2022/12/17 21:06:39;;;;;;;;;62.00;48.75;;;;;-0.80;54.89;102093.13;5060310;28;45317;-48
2022/12/17 21:09:06;;;;;;;;;66.50;50.00;;;;;-0.83;55.26;102086.06;5060057;28;45304;-45
2022/12/17 21:11:34;;;;;;;;;61.50;45.50;;;;;-0.87;55.36;102089.31;5060179;28;45311;-45
2022/12/17 21:14:03;;;;;;;;;64.75;46.25;;;;;-0.90;54.83;102087.44;5060222;28;45436;-45
2022/12/17 21:16:30;;;;;;;;;63.50;50.50;;;;;-0.92;55.52;102094.19;5059822;28;45497;-46
2022/12/17 21:18:57;;;;;;;;;64.50;46.00;;;;;-0.93;55.15;102094.13;5059877;28;46253;-44
2022/12/17 21:21:26;;;;;;;;;56.75;44.75;;;;;-0.96;55.34;102088.81;5059101;28;45308;-48
2022/12/17 21:23:52;;;;;;;;;50.50;42.00;;;;;-1.00;55.40;102082.59;5060093;28;45318;-45
2022/12/17 21:26:17;;;;;;;;;40.25;34.50;;;;;-1.03;55.06;102080.72;5055301;28;45661;-44
2022/12/17 21:28:44;;;;;;;;;55.50;44.75;;;;;-1.05;55.30;102071.13;5055202;28;45398;-46
2022/12/17 21:31:21;;;;;;;;;59.25;46.25;;;;;-1.07;55.68;102073.63;5059641;28;45377;-46
2022/12/17 21:33:46;;;;;;;;;57.00;46.00;;;;;-1.10;55.58;102073.44;5059849;28;45257;-44
2022/12/17 21:36:12;;;;;;;;;37.00;35.25;;;;;-1.14;55.28;102074.09;5059822;28;45316;-44
2022/12/17 21:38:38;;;;;;;;;58.50;41.25;;;;;-1.13;55.81;102077.56;5059818;28;45444;-44
2022/12/17 21:41:06;;;;;;;;;55.00;43.00;;;;;-1.16;55.19;102071.44;5059642;28;45424;-44
2022/12/17 21:43:32;;;;;;;;;63.00;44.25;;;;;-1.17;55.80;102073.91;5059677;28;45165;-44
2022/12/17 21:45:57;;;;;;;;;49.50;39.75;;;;;-1.19;55.28;102062.63;5059560;28;45448;-46
2022/12/17 21:48:23;;;;;;;;;52.25;45.75;;;;;-1.28;55.70;102057.84;5059480;28;45442;-46
2022/12/17 21:50:48;;;;;;;;;42.75;37.75;;;;;-1.22;55.84;102059.88;5075475;28;45316;-44
2022/12/17 21:53:14;;;;;;;;;65.50;47.50;;;;;-1.24;55.73;102072.69;5059311;27;45296;-49
2022/12/17 21:55:39;;;;;;;;;74.25;55.25;;;;;-1.26;55.77;102069.13;5059651;28;45490;-44
2022/12/17 21:58:05;;;;;;;;;62.75;47.50;;;;;-1.27;55.67;102069.06;5058236;28;47632;-45
2022/12/17 22:00:31;;;;;;;;;71.00;50.75;;;;;-1.28;55.16;102068.19;5074931;28;45619;-46
2022/12/17 22:02:57;;;;;;;;;59.75;46.75;;;;;-1.29;55.42;102050.91;5059686;28;45338;-45
2022/12/17 22:05:22;;;;;;;;;58.00;46.25;;;;;-1.31;55.74;102052.50;5059570;28;45332;-45
2022/12/17 22:07:48;;;;;;;;;65.00;46.75;;;;;-1.36;55.67;102052.28;5074829;28;48469;-45
2022/12/17 22:10:13;;;;;;;;;64.25;46.75;;;;;-1.34;55.89;102053.22;5059719;28;45195;-44
2022/12/17 22:15:23;;;;;;;;;58.75;47.25;;;;;-1.39;55.50;102049.50;5059212;28;45231;-44
2022/12/17 22:17:49;;;;;;;;;61.25;42.00;;;;;-1.39;55.90;102052.09;5059141;28;46081;-45
2022/12/17 22:20:15;;;;;;;;;54.00;42.25;;;;;-1.40;55.86;102047.72;5059508;28;45238;-47
2022/12/17 22:22:41;;;;;;;;;54.25;41.00;;;;;-1.41;56.21;102035.66;5059267;28;45510;-46
2022/12/17 22:25:08;;;;;;;;;54.75;46.25;;;;;-1.40;55.99;102029.69;5059284;28;45228;-47
2022/12/17 22:27:33;;;;;;;;;58.75;47.75;;;;;-1.41;56.25;102025.34;5058189;28;47234;-45
2022/12/17 22:35:32;;;;;;;;;67.50;50.75;;;;;-1.43;56.01;102042.41;5062591;28;45320;-45
2022/12/17 22:37:58;;;;;;;;;55.75;46.50;;;;;-1.42;56.02;102043.28;5062547;28;46193;-45
2022/12/17 22:40:23;;;;;;;;;57.00;46.75;;;;;-1.42;56.12;102044.19;5062345;28;45304;-45
2022/12/17 22:45:43;;;;;;;;;64.50;49.75;;;;;-1.42;55.67;102025.25;5064504;28;45252;-45
2022/12/17 22:48:11;;;;;;;;;67.25;50.50;;;;;-1.44;56.32;102027.75;5047376;28;45938;-46
2022/12/17 22:50:38;;;;;;;;;66.25;50.75;;;;;-1.46;56.30;102024.19;5061171;28;45385;-46
2022/12/17 22:53:03;;;;;;;;;71.25;52.75;;;;;-1.44;55.81;102012.28;5060867;28;45357;-47
2022/12/17 22:55:29;;;;;;;;;67.25;49.75;;;;;-1.47;56.07;102006.97;5062420;28;45592;-45
2022/12/17 22:57:55;;;;;;;;;76.75;54.50;;;;;-1.44;56.20;102012.28;5062029;28;45247;-49
2022/12/17 23:00:25;;;;;;;;;69.50;51.75;;;;;-1.45;55.54;102019.94;5060972;28;45363;-47
2022/12/17 23:02:53;;;;;;;;;65.25;51.50;;;;;-1.45;56.06;102031.13;5062372;28;45225;-46
2022/12/17 23:05:20;;;;;;;;;68.75;52.00;;;;;-1.49;55.91;102011.13;5062211;28;45367;-45
2022/12/17 23:07:45;;;;;;;;;69.50;50.75;;;;;-1.46;56.31;102006.13;5061950;28;47263;-45
2022/12/17 23:10:11;;;;;;;;;71.00;54.75;;;;;-1.50;55.63;101997.38;5062223;28;45502;-45
2022/12/17 23:12:53;;;;;;;;;70.50;51.75;;;;;-1.49;56.28;102004.28;5061988;28;45226;-47
2022/12/17 23:15:26;;;;;;;;;71.00;53.00;;;;;-1.51;56.21;101997.25;5077227;27;45616;-45
2022/12/17 23:17:53;;;;;;;;;80.00;59.33;;;;;-1.52;56.21;101996.38;5060529;28;47646;-43
2022/12/17 23:20:19;;;;;;;;;64.50;47.75;;;;;-1.54;56.44;101991.94;5077536;28;45343;-45
2022/12/17 23:22:44;;;;;;;;;77.25;59.75;;;;;-1.56;55.98;101980.66;5060803;28;45442;-44
2022/12/17 23:25:10;;;;;;;;;79.75;53.75;;;;;-1.56;56.37;101978.97;5051458;28;45235;-44
2022/12/17 23:27:36;;;;;;;;;71.50;55.25;;;;;-1.58;55.79;101985.72;5061179;28;45267;-44
2022/12/17 23:30:01;;;;;;;;;70.50;54.00;;;;;-1.58;56.17;101990.00;5061428;28;45362;-44
2022/12/17 23:32:26;;;;;;;;;66.25;50.00;;;;;-1.60;55.97;101989.03;5077436;28;45687;-46
2022/12/17 23:34:52;;;;;;;;;70.75;54.00;;;;;-1.66;56.63;101972.41;5077270;28;45366;-46
2022/12/17 23:37:17;;;;;;;;;64.75;48.75;;;;;-1.63;56.26;101985.47;5061473;28;46235;-46
2022/12/17 23:39:43;;;;;;;;;65.25;50.50;;;;;-1.65;56.50;101981.03;5061645;28;45181;-46
2022/12/17 23:42:08;;;;;;;;;65.50;50.25;;;;;-1.66;55.94;101977.56;5061402;28;45357;-46
2022/12/17 23:44:33;;;;;;;;;69.25;50.25;;;;;-1.66;55.78;101975.00;5061075;27;45553;-44
2022/12/17 23:46:59;;;;;;;;;63.50;49.25;;;;;-1.68;55.95;101976.59;5061069;28;46045;-44
2022/12/17 23:49:24;;;;;;;;;65.00;53.75;;;;;-1.70;56.17;101970.47;5061605;28;45158;-45
2022/12/17 23:51:50;;;;;;;;;67.75;51.50;;;;;-1.71;56.26;101979.00;5061243;28;45542;-46
2022/12/17 23:54:15;;;;;;;;;63.25;48.25;;;;;-1.71;56.56;101976.44;5061342;28;45607;-45
2022/12/17 23:56:41;;;;;;;;;67.25;50.75;;;;;-1.71;55.82;101975.53;5061052;28;46232;-46
2022/12/17 23:59:06;;;;;;;;;63.50;50.25;;;;;-1.70;56.38;101969.56;5061376;28;45187;-45
